Time;durP1;ratioP1;P1;durP2;ratioP2;P2;SDS_P1;SDS_P2;PMS_P1;PMS_P2;Temp;Humidity;BMP_temperature;BMP_pressure;BME280_temperature;BME280_humidity;BME280_pressure;Samples;Min_cycle;Max_cycle;Signal;HPM_P1;HPM_P2
2020/12/16 00:04:24;;;;;;;22.30;13.40;;;;;;;1.94;80.34;99691.00;517229;1095;65188;-62
2020/12/16 00:14:28;;;;;;;19.33;13.47;;;;;;;2.01;80.40;99700.31;516738;1095;65235;-63
2020/12/16 00:24:33;;;;;;;22.00;15.20;;;;;;;1.94;80.35;99684.09;516876;1095;65153;-62
2020/12/16 00:34:37;;;;;;;27.03;17.10;;;;;;;1.90;80.55;99694.58;517025;1095;65249;-62
2020/12/16 00:44:41;;;;;;;27.37;14.77;;;;;;;1.92;80.22;99695.38;516653;1097;65191;-63
2020/12/16 00:54:45;;;;;;;22.37;14.33;;;;;;;1.99;80.12;99699.52;516751;1090;65307;-63
2020/12/16 01:04:49;;;;;;;21.37;13.30;;;;;;;1.99;80.02;99716.78;516301;1095;65264;-65
2020/12/16 01:14:53;;;;;;;21.70;12.60;;;;;;;1.92;80.12;99724.73;517694;1090;65143;-68
2020/12/16 01:24:56;;;;;;;23.30;14.17;;;;;;;1.85;80.43;99711.95;517265;1095;65276;-67
2020/12/16 01:35:00;;;;;;;19.20;11.77;;;;;;;1.85;80.27;99717.13;516908;1096;65602;-69
2020/12/16 01:45:06;;;;;;;16.30;12.23;;;;;;;1.92;80.26;99714.37;516967;1095;65298;-67
2020/12/16 01:55:12;;;;;;;17.77;11.27;;;;;;;1.92;80.22;99716.09;516879;1097;65179;-65
2020/12/16 02:05:20;;;;;;;24.37;13.00;;;;;;;1.75;80.42;99726.89;517239;1095;65195;-67
2020/12/16 02:15:24;;;;;;;18.37;12.87;;;;;;;1.63;80.44;99741.84;517310;1095;65316;-65
2020/12/16 02:25:28;;;;;;;21.03;14.37;;;;;;;1.64;80.48;99722.83;517175;1090;65179;-65
2020/12/16 02:35:32;;;;;;;19.00;13.03;;;;;;;1.72;80.69;99720.04;517165;1098;65172;-66
2020/12/16 02:45:37;;;;;;;14.30;10.00;;;;;;;1.67;80.50;99748.66;517307;1090;65610;-66
2020/12/16 02:55:40;;;;;;;20.10;12.80;;;;;;;1.59;81.17;99760.07;517275;1095;65427;-66
2020/12/16 03:05:45;;;;;;;21.87;13.07;;;;;;;1.54;80.43;99748.09;517128;1090;65182;-65
2020/12/16 03:15:49;;;;;;;18.33;11.97;;;;;;;1.60;80.82;99751.41;517296;1090;65175;-66
2020/12/16 03:25:53;;;;;;;18.43;12.87;;;;;;;1.71;80.87;99753.75;517907;1095;65782;-66
2020/12/16 03:35:57;;;;;;;16.57;10.67;;;;;;;1.76;80.83;99754.47;517437;1090;65582;-67
2020/12/16 03:46:01;;;;;;;19.13;12.10;;;;;;;1.74;80.82;99769.20;517362;1095;65253;-67
2020/12/16 03:56:09;;;;;;;21.97;14.30;;;;;;;1.68;80.82;99763.30;517340;1090;65611;-70
2020/12/16 04:06:13;;;;;;;20.85;13.50;;;;;;;1.71;80.88;99775.30;516888;1097;65576;-65
2020/12/16 04:16:20;;;;;;;16.50;11.47;;;;;;;1.76;80.95;99783.82;517620;1095;65163;-67
2020/12/16 04:26:28;;;;;;;22.60;13.57;;;;;;;1.78;80.75;99784.62;517313;1090;65155;-67
2020/12/16 04:36:33;;;;;;;18.77;11.97;;;;;;;1.64;80.91;99776.36;517315;1090;65226;-66
2020/12/16 04:46:40;;;;;;;19.00;12.07;;;;;;;1.56;80.90;99773.09;517313;1090;65253;-66
2020/12/16 04:56:45;;;;;;;22.20;14.40;;;;;;;1.54;81.10;99781.75;517307;1095;65232;-67
2020/12/16 05:06:49;;;;;;;28.40;16.37;;;;;;;1.72;81.06;99786.52;517306;1095;65159;-68
2020/12/16 05:16:56;;;;;;;22.53;13.90;;;;;;;1.82;80.53;99800.95;517511;1096;65482;-67
2020/12/16 05:27:00;;;;;;;18.33;11.00;;;;;;;1.75;80.54;99800.25;517480;1095;65546;-67
2020/12/16 05:37:32;;;;;;;14.87;9.73;;;;;;;1.71;80.63;99803.77;517094;1097;65288;-67
2020/12/16 05:47:39;;;;;;;17.67;9.93;;;;;;;1.75;80.99;99807.15;517121;1096;65160;-66
2020/12/16 05:57:43;;;;;;;15.95;10.58;;;;;;;1.75;81.00;99815.78;517663;1095;65319;-67
2020/12/16 06:07:49;;;;;;;17.27;10.63;;;;;;;1.66;81.17;99832.36;517400;1095;65531;-66
2020/12/16 06:17:52;;;;;;;17.17;11.10;;;;;;;1.68;81.15;99827.16;517239;1097;65607;-66
2020/12/16 06:27:57;;;;;;;20.60;12.53;;;;;;;1.79;81.15;99840.70;516939;1095;65239;-67
2020/12/16 06:38:28;;;;;;;22.30;14.97;;;;;;;1.85;80.79;99846.61;517279;1095;65259;-65
2020/12/16 06:48:36;;;;;;;18.33;12.03;;;;;;;1.75;80.99;99867.56;517094;1096;65588;-67
2020/12/16 06:58:40;;;;;;;20.70;12.67;;;;;;;1.74;81.30;99877.95;517226;1095;65234;-66
2020/12/16 07:08:44;;;;;;;20.90;11.00;;;;;;;1.87;81.13;99889.72;517409;1090;65146;-67
2020/12/16 07:18:51;;;;;;;24.07;13.77;;;;;;;1.98;80.88;99898.97;516939;1095;65348;-67
2020/12/16 07:28:56;;;;;;;19.73;12.47;;;;;;;2.08;80.81;99911.69;517505;1095;65470;-67
2020/12/16 07:39:00;;;;;;;29.20;17.70;;;;;;;2.21;80.88;99909.63;517000;1097;65650;-67
2020/12/16 07:49:04;;;;;;;22.87;13.90;;;;;;;2.37;80.56;99930.84;517354;1095;65418;-68
2020/12/16 07:59:13;;;;;;;15.83;10.77;;;;;;;2.63;80.32;99937.10;517084;1090;65598;-68
2020/12/16 08:09:22;;;;;;;16.43;11.97;;;;;;;2.79;79.95;99945.34;516845;1090;65586;-66
2020/12/16 08:19:28;;;;;;;14.65;9.80;;;;;;;2.73;79.72;99953.30;517256;1095;65201;-66
2020/12/16 08:29:36;;;;;;;12.13;9.87;;;;;;;2.70;79.95;99955.11;517103;1095;65159;-66
2020/12/16 08:39:46;;;;;;;13.80;8.90;;;;;;;2.87;80.39;99952.08;517062;1097;65237;-67
2020/12/16 08:49:51;;;;;;;18.53;11.67;;;;;;;3.11;80.23;99947.13;517235;1095;65182;-68
2020/12/16 09:00:07;;;;;;;19.30;11.13;;;;;;;3.60;79.51;99955.27;517256;1095;65255;-67
2020/12/16 09:10:16;;;;;;;15.03;10.97;;;;;;;3.56;78.80;99964.89;516876;1096;65258;-68
2020/12/16 09:20:23;;;;;;;16.57;9.13;;;;;;;3.67;78.79;99966.33;516932;1090;65127;-63
2020/12/16 09:30:34;;;;;;;18.00;10.23;;;;;;;3.86;79.16;99977.84;518005;1095;65156;-63
2020/12/16 09:40:38;;;;;;;17.03;10.50;;;;;;;3.88;78.59;99988.20;518500;1090;65176;-66
2020/12/16 09:50:43;;;;;;;17.63;11.93;;;;;;;3.71;78.64;99992.16;517633;1095;65185;-69
2020/12/16 10:00:47;;;;;;;18.93;11.83;;;;;;;3.74;78.93;99989.47;517458;1095;65255;-64
2020/12/16 10:10:51;;;;;;;19.17;11.57;;;;;;;3.75;78.89;99996.36;517218;1097;65153;-66
2020/12/16 10:20:57;;;;;;;21.13;13.87;;;;;;;3.77;79.03;100017.11;507963;1090;10001889;-70
2020/12/16 10:31:01;;;;;;;23.40;15.43;;;;;;;3.75;79.13;100013.68;516710;1090;65185;-67
2020/12/16 10:41:06;;;;;;;28.17;15.90;;;;;;;3.67;80.73;100018.27;516997;1097;65542;-69
2020/12/16 10:51:11;;;;;;;20.70;13.70;;;;;;;3.63;80.63;100013.14;516697;1095;65159;-66
2020/12/16 11:01:17;;;;;;;24.20;16.37;;;;;;;3.59;81.66;100027.12;516464;1090;65178;-66
2020/12/16 11:11:22;;;;;;;21.17;14.30;;;;;;;3.57;82.02;100015.06;516833;1095;65237;-67
2020/12/16 11:21:26;;;;;;;28.50;18.53;;;;;;;3.35;81.73;99997.52;516649;1096;65175;-70
2020/12/16 11:31:30;;;;;;;26.53;16.93;;;;;;;3.54;81.87;100020.34;517279;1090;65150;-60
2020/12/16 11:41:34;;;;;;;26.67;16.17;;;;;;;3.69;81.82;100030.29;516909;1097;65928;-60
2020/12/16 11:51:39;;;;;;;29.85;17.45;;;;;;;3.59;82.48;100016.73;516800;1095;65236;-61
2020/12/16 12:01:43;;;;;;;28.23;17.43;;;;;;;3.81;83.07;100012.65;517250;1090;65284;-63
2020/12/16 12:11:48;;;;;;;27.05;18.50;;;;;;;3.89;82.46;100034.07;517320;1096;65643;-64
2020/12/16 12:21:53;;;;;;;40.85;22.95;;;;;;;3.84;82.82;100028.17;517260;1090;65253;-60
2020/12/16 12:31:57;;;;;;;33.80;19.77;;;;;;;3.83;82.84;100024.70;508544;1090;10001839;-69
2020/12/16 12:42:02;;;;;;;35.17;22.23;;;;;;;3.77;83.21;100033.53;516979;1090;65159;-64
2020/12/16 12:52:06;;;;;;;37.73;23.27;;;;;;;3.82;83.15;100035.16;516687;1090;65182;-66
2020/12/16 13:02:11;;;;;;;45.83;24.77;;;;;;;3.88;83.04;100037.56;517224;1095;65185;-59
2020/12/16 13:12:15;;;;;;;41.50;24.70;;;;;;;4.03;83.43;100033.67;516483;1097;65226;-65
2020/12/16 13:22:21;;;;;;;41.97;26.33;;;;;;;4.09;83.89;100059.45;516594;1095;65178;-63
2020/12/16 13:32:25;;;;;;;46.63;26.30;;;;;;;4.18;84.06;100066.16;517525;1090;65771;-66
2020/12/16 13:42:31;;;;;;;51.80;25.80;;;;;;;4.18;84.04;100073.95;517290;1095;65844;-60
2020/12/16 13:52:37;;;;;;;47.90;27.47;;;;;;;4.26;83.82;100073.72;517071;1096;65303;-67
2020/12/16 14:02:40;;;;;;;48.07;26.63;;;;;;;4.35;83.97;100083.84;516823;1090;65830;-60
2020/12/16 14:12:44;;;;;;;46.07;25.33;;;;;;;4.27;83.98;100098.81;516496;1090;65229;-55
2020/12/16 14:22:48;;;;;;;48.17;24.40;;;;;;;4.34;83.75;100098.58;516444;1090;65248;-56
2020/12/16 14:32:52;;;;;;;43.20;25.33;;;;;;;4.35;83.72;100113.28;517452;1090;65184;-64
2020/12/16 14:42:57;;;;;;;52.75;26.05;;;;;;;4.22;83.41;100111.94;516767;1090;66531;-60
2020/12/16 14:53:01;;;;;;;53.83;27.67;;;;;;;4.16;83.66;100109.54;516992;1095;65217;-60
2020/12/16 15:03:09;;;;;;;50.85;28.90;;;;;;;4.25;83.65;100118.81;516552;1097;65162;-59
2020/12/16 15:13:13;;;;;;;59.97;32.53;;;;;;;4.35;84.07;100118.48;516982;1090;65156;-57
2020/12/16 15:23:17;;;;;;;62.60;31.70;;;;;;;4.26;83.63;100126.55;516982;1095;65598;-59
2020/12/16 15:33:21;;;;;;;53.77;31.83;;;;;;;4.24;84.50;100133.54;516639;1096;65463;-61
2020/12/16 15:43:25;;;;;;;63.83;34.27;;;;;;;4.40;83.90;100138.31;516751;1098;65201;-57
2020/12/16 15:53:29;;;;;;;68.30;33.65;;;;;;;4.32;83.94;100141.98;516398;1090;65181;-61
2020/12/16 16:03:33;;;;;;;76.50;37.90;;;;;;;4.26;83.96;100162.11;516634;1090;65249;-60
2020/12/16 16:13:37;;;;;;;76.53;38.57;;;;;;;4.28;84.42;100168.97;517155;1095;65297;-60
2020/12/16 16:23:41;;;;;;;65.80;34.80;;;;;;;4.31;83.87;100173.21;516429;1095;65166;-60
2020/12/16 16:33:45;;;;;;;79.50;39.30;;;;;;;4.30;84.43;100179.31;516662;1090;65367;-61
2020/12/16 16:43:50;;;;;;;84.80;42.10;;;;;;;4.37;83.92;100190.38;516888;1095;65487;-58
2020/12/16 16:53:54;;;;;;;78.60;43.33;;;;;;;4.35;84.46;100206.05;516775;1090;65247;-59
2020/12/16 17:03:58;;;;;;;83.57;41.93;;;;;;;4.41;83.89;100205.02;516763;1096;65236;-59
2020/12/16 17:14:03;;;;;;;134.60;57.80;;;;;;;4.40;83.76;100203.31;516615;1095;65178;-59
2020/12/16 17:24:09;;;;;;;94.60;43.23;;;;;;;4.36;84.21;100205.15;515989;1095;65182;-59
2020/12/16 17:34:13;;;;;;;89.60;43.40;;;;;;;4.28;84.79;100212.30;516846;1095;65233;-61
2020/12/16 17:44:18;;;;;;;104.90;52.13;;;;;;;4.18;84.43;100224.72;517555;1095;65229;-60
2020/12/16 17:54:22;;;;;;;98.40;50.03;;;;;;;4.20;84.51;100249.75;517603;1095;65511;-61
2020/12/16 18:04:28;;;;;;;85.70;41.53;;;;;;;4.31;84.48;100261.61;517195;1090;65224;-59
2020/12/16 18:14:35;;;;;;;91.87;43.13;;;;;;;4.36;84.91;100275.36;517471;1095;65252;-60
2020/12/16 18:24:39;;;;;;;96.87;47.13;;;;;;;4.42;84.25;100271.73;517345;1095;65530;-60
2020/12/16 18:34:43;;;;;;;104.20;45.37;;;;;;;4.42;84.26;100275.17;517523;1095;65516;-59
2020/12/16 18:44:51;;;;;;;95.03;46.63;;;;;;;4.39;84.75;100283.06;517819;1090;65233;-60
2020/12/16 18:54:54;;;;;;;;;;;;;;;4.36;84.75;100280.55;517440;1095;65288;-60
2020/12/16 19:05:01;;;;;;;101.80;46.57;;;;;;;4.35;84.71;100284.05;517464;1095;65235;-60
2020/12/16 19:15:05;;;;;;;93.67;44.10;;;;;;;4.33;84.86;100285.84;517410;1095;65421;-60
2020/12/16 19:25:14;;;;;;;94.10;44.47;;;;;;;4.37;84.86;100290.06;517324;1090;65220;-60
2020/12/16 19:35:18;;;;;;;86.50;41.60;;;;;;;4.43;84.37;100291.64;517353;1090;65221;-60
2020/12/16 19:45:22;;;;;;;81.47;39.07;;;;;;;4.48;84.20;100305.36;517193;1095;65198;-60
2020/12/16 19:55:27;;;;;;;85.13;40.07;;;;;;;4.41;84.80;100307.27;516729;1095;66396;-59
2020/12/16 20:05:30;;;;;;;88.93;41.97;;;;;;;4.28;84.53;100316.30;516346;1097;65182;-60
2020/12/16 20:15:34;;;;;;;95.77;44.90;;;;;;;4.23;85.04;100310.38;516520;1090;65133;-59
2020/12/16 20:25:38;;;;;;;95.37;42.13;;;;;;;4.17;84.90;100320.03;516811;1096;65543;-59
2020/12/16 20:35:43;;;;;;;87.83;42.50;;;;;;;4.11;85.69;100322.80;517400;1095;65156;-60
2020/12/16 20:45:48;;;;;;;78.83;39.00;;;;;;;4.12;85.05;100334.03;517299;1095;65159;-59
2020/12/16 20:55:54;;;;;;;86.80;39.80;;;;;;;4.11;85.11;100335.80;507726;1090;10001778;-62
2020/12/16 21:05:58;;;;;;;103.37;50.57;;;;;;;4.13;85.64;100335.73;516554;1095;65256;-65
2020/12/16 21:16:02;;;;;;;102.67;53.70;;;;;;;4.18;85.40;100339.93;516716;1097;65245;-64
2020/12/16 21:26:06;;;;;;;106.50;53.20;;;;;;;4.18;85.33;100346.89;516447;1095;65248;-65
2020/12/16 21:36:14;;;;;;;95.30;48.60;;;;;;;4.10;86.24;100343.62;516484;1097;65246;-65
2020/12/16 21:46:18;;;;;;;91.50;46.13;;;;;;;4.04;85.70;100342.90;517269;1090;65334;-64
2020/12/16 21:56:23;;;;;;;132.20;60.40;;;;;;;3.99;86.37;100341.30;517036;1095;65635;-67
2020/12/16 22:06:26;;;;;;;91.93;46.53;;;;;;;3.89;86.16;100336.33;516756;1096;65528;-67
2020/12/16 22:16:33;;;;;;;86.60;44.23;;;;;;;3.83;85.83;100340.82;516711;1097;65931;-65
2020/12/16 22:26:38;;;;;;;98.20;46.37;;;;;;;3.89;86.15;100338.92;516873;1097;65172;-67
2020/12/16 22:36:41;;;;;;;90.07;44.40;;;;;;;3.82;86.04;100326.97;516416;1097;65252;-63
2020/12/16 22:46:45;;;;;;;83.90;46.37;;;;;;;3.82;87.04;100328.73;516578;1090;65270;-65
2020/12/16 22:56:49;;;;;;;95.10;50.10;;;;;;;3.83;86.42;100322.64;516798;1097;65175;-64
2020/12/16 23:06:55;;;;;;;85.67;43.60;;;;;;;3.84;86.91;100324.34;517139;1090;65229;-67
2020/12/16 23:17:04;;;;;;;82.10;38.90;;;;;;;3.84;86.45;100314.78;517386;1097;65150;-66
2020/12/16 23:27:09;;;;;;;99.60;48.10;;;;;;;3.78;86.29;100320.98;517500;1095;65252;-62
2020/12/16 23:37:17;;;;;;;104.37;46.47;;;;;;;3.83;87.09;100307.05;517422;1097;65261;-61
2020/12/16 23:47:24;;;;;;;117.60;53.07;;;;;;;3.85;86.83;100321.69;517503;1095;65181;-61
2020/12/16 23:57:35;;;;;;;107.80;54.67;;;;;;;3.95;87.09;100331.86;517121;1095;65173;-61
